Australian Towns and Cities METAR Reports

YMHB - Hobart/Tasmania, Australia
Distance from station: NE 55km
Updated: 19/01/2021 17:00
Mostly cloudy
Mostly cloudy
 Wind from SSW
Wind: SSW 30 km/h
Temperature: 17°C
Dew Point: 0°C
Humidity: 32%
Barometer: 1021 hPa
Clouds: Mostly cloudy
Visibility: 10 km
Cloud details: Few Clouds 1219 m
Mostly cloudy 9144 m
2021/01/19 06:00 YMHB 190600Z 20016KT 9999 FEW040 BKN300 17/00 Q1021
YMLT - Launceston Airpo, Australia
Distance from station: N 179km
Updated: 19/01/2021 17:00
Clear
Clear
 Wind from S
Wind: S 19 km/h
Temperature: 19°C
Dew Point: -1°C
Humidity: 26%
Barometer: 1020 hPa
Clouds: Clear
Visibility: 10 km
2021/01/19 06:00 YMLT 190600Z AUTO 19010KT 9999 // NCD 19/M01 Q1020
 
YMML - Melbourne Intl A, Australia
Distance from station: NNW 631km
Updated: 19/01/2021 17:00
Few Clouds
Few Clouds
 Wind from S
Wind: S 31 km/h
Temperature: 17°C
Dew Point: 5°C
Humidity: 45%
Barometer: 1023 hPa
Clouds: Few Clouds
Visibility: 10 km
Cloud details: Few Clouds 1219 m
2021/01/19 06:00 YMML 190600Z 19017KT 9999 FEW040 17/05 Q1023
YSCB - Canberra (civ/Mi, Australia
Distance from station: NNE 888km
Updated: 19/01/2021 17:00
Partly cloudy
Partly cloudy
 Wind from E
Wind: E 33 km/h
Temperature: 25°C
Dew Point: 9°C
Humidity: 36%
Barometer: 1016 hPa
Clouds: Partly cloudy
Visibility: 10 km
Cloud details: Partly cloudy 3048 m
2021/01/19 06:00 YSCB 190600Z AUTO 10018KT 9999 // SCT100 25/09 Q1016
 
YSSY - Sydney Intl Airp, Australia
Distance from station: NNE 1083km
Updated: 19/01/2021 17:00
Overcast
Overcast
 Wind from SSE
Wind: SSE 33 km/h
Temperature: 22°C
Dew Point: 13°C
Humidity: 57%
Barometer: 1018 hPa
Clouds: Overcast
Visibility: 10 km
Cloud details: Few Clouds 975 m
Overcast 1402 m
2021/01/19 06:00 YSSY 190600Z 16018KT 9999 FEW032 OVC046 22/13 Q1018
YPAD - Adelaide Intl Ar, Australia
Distance from station: NW 1166km
Updated: 19/01/2021 17:00
Clear
Clear
 Wind from SE
Wind: SE 22 km/h
Temperature: 28°C
Dew Point: 4°C
Humidity: 21%
Barometer: 1019 hPa
Summary: Clear
Visibility: greater than 10 km
2021/01/19 06:00 YPAD 190600Z 14012KT CAVOK 28/04 Q1019
 
YBBN - Brisbane Intl Ar, Australia
Distance from station: NNE 1836km
Updated: 19/01/2021 17:00
Few Clouds
Few Clouds
 Wind from ENE
Wind: ENE 15 km/h
Temperature: 28°C
Heat Index: 29°C
Dew Point: 19°C
Humidity: 58%
Barometer: 1011 hPa
Clouds: Few Clouds
Visibility: 10 km
Cloud details: Few Clouds 1311 m
2021/01/19 06:00 YBBN 190600Z 07008KT 9999 FEW043 28/19 Q1011
YBMK - Mackay, Australia
Distance from station: N 2456km
Updated: 19/01/2021 16:00
NOT Current
Mostly cloudy
Mostly cloudy
 Wind from E
Wind: E 20 km/h
Temperature: 28°C
Heat Index: 31°C
Dew Point: 23°C
Humidity: 74%
Barometer: 1010 hPa
Clouds: Mostly cloudy
Visibility: 10 km
Cloud details: Mostly cloudy 1859 m
Mostly cloudy 3658 m
2021/01/19 05:00 YBMK 190500Z AUTO 10011KT 9999 // BKN061 BKN120 28/23 Q1010
 
YBAS - Alice Springs Ar, Australia
Distance from station: NNW 2462km
Updated: 19/01/2021 17:00
Clear
Clear
 Wind from E
Wind: E 19 km/h
Temperature: 33°C
Dew Point: 1°C
Humidity: 13%
Barometer: 1013 hPa
Summary: Clear
Visibility: greater than 10 km
2021/01/19 06:00 YBAS 190600Z 09010KT CAVOK 33/01 Q1013
YBTL - Townsville(Civ/M, Australia
Distance from station: N 2655km
Updated: 19/01/2021 17:00
Light rain, Showers, Mostly cloudy
Light rain, Showers, Mostly cloudy
 Wind from E
Wind: E 24 km/h
Temperature: 28°C
Heat Index: 32°C
Dew Point: 24°C
Humidity: 79%
Barometer: 1008 hPa
Summary: Light rain, Showers
Clouds: Mostly cloudy
Visibility: 10 km
Cloud details: Few Clouds 488 m
Partly cloudy 762 m
Mostly cloudy 1524 m
2021/01/19 06:00 YBTL 190600Z 10013KT 9999 -SHRA FEW016 SCT025 BKN050 28/24 Q1008
 
YBCS - Cairns Airport, Australia
Distance from station: N 2923km
Updated: 19/01/2021 17:00
Overcast
Overcast
 Wind from SSE
Wind: SSE 13 km/h
Temperature: 31°C
Heat Index: 36°C
Dew Point: 23°C
Humidity: 62%
Barometer: 1006 hPa
Clouds: Overcast
Visibility: 10 km
Cloud details: Partly cloudy 914 m
Overcast 2682 m
2021/01/19 06:00 YBCS 190600Z AUTO 15007KT 9999 // SCT030 OVC088 31/23 Q1006
YPPH - Perth Intl/Belmo, Australia
Distance from station: WNW 2982km
Updated: 19/01/2021 17:00
Clear
Clear
 Wind from WNW
Wind: WNW 22 km/h
Temperature: 33°C
Dew Point: 13°C
Humidity: 30%
Barometer: 1007 hPa
Summary: Clear
Visibility: greater than 10 km
2021/01/19 06:00 YPPH 190600Z 29012KT CAVOK 33/13 Q1007
 
YPDN - Darwin (civ/Mil), Australia
Distance from station: NNW 3749km
Updated: 19/01/2021 17:00
Nearby showers, Mostly cloudy
Nearby showers, Mostly cloudy
 Wind from E
Wind: E 9 km/h
Temperature: 27°C
Heat Index: 32°C
Dew Point: 26°C
Humidity: 94%
Barometer: 1005 hPa
Summary: Nearby Showers
Clouds: Mostly cloudy
Visibility: 10 km
Cloud details: Few Clouds 244 m
Partly cloudy 762 m
Mostly cloudy 1006 m
2021/01/19 06:00 YPDN 190600Z 09005KT 9999 VCSH FEW008 SCT025 BKN033 27/26 Q1005
YBWX - Barrow Island, Australia
Distance from station: NW 3832km
Updated: 19/01/2021 17:00

 Wind from SSW
Wind: SSW 20 km/h
Temperature: 35°C
Heat Index: 45°C
Dew Point: 26°C
Humidity: 60%
Barometer: 1006 hPa
2021/01/19 06:00 YBWX 190600Z AUTO 20011KT //// // ////// 35/26 Q1006